| time (UTC) | temp C | wind direction | speed KPH | gust KPH | rain 1hr cm | rain 24hr cm | rain mn cm | humidity % | barometer mb |
| 20260906182257 | 35 | 348 | 0.0 | 0.0 | 0.00 | 0.00 | 0.00 | 36 | 1014.2 |
| 20260906181752 | 35 | 354 | 0.0 | 0.0 | 0.00 | 0.00 | 0.00 | 35 | 1014.7 |
| 20260906181248 | 35 | 348 | 1.6 | 1.6 | 0.00 | 0.00 | 0.00 | 35 | 1014.7 |
| 20260906180743 | 35 | 46 | 0.0 | 0.0 | 0.00 | 0.00 | 0.00 | 36 | 1014.7 |
| 20260906180238 | 35 | 46 | 0.0 | 0.0 | 0.00 | 0.00 | 0.00 | 35 | 1015.4 |
| 20260906175735 | 35 | 110 | 0.0 | 0.0 | 0.00 | 0.00 | 0.00 | 36 | 1015.0 |
| 20260906175231 | 35 | 110 | 0.0 | 0.0 | 0.00 | 0.00 | 0.00 | 34 | 1015.0 |
| 20260906174729 | 37 | 94 | 3.2 | 3.2 | 0.00 | 0.00 | 0.00 | 35 | 1015.4 |
| 20260906174224 | 36 | 18 | 0.0 | 0.0 | 0.00 | 0.00 | 0.00 | 34 | 1015.4 |
| 20260906173719 | 36 | 90 | 0.0 | 0.0 | 0.00 | 0.00 | 0.00 | 37 | 1015.7 |
| 20260906173215 | 35 | 18 | 3.2 | 3.2 | 0.00 | 0.00 | 0.00 | 36 | 1015.7 |
| 20260906172714 | 36 | 332 | 3.2 | 3.2 | 0.00 | 0.00 | 0.00 | 36 | 1015.7 |
| 20260906172209 | 36 | 91 | 3.2 | 3.2 | 0.00 | 0.00 | 0.00 | 38 | 1015.7 |
| 20260906171704 | 35 | 163 | 0.0 | 0.0 | 0.00 | 0.00 | 0.00 | 37 | 1016.0 |
| 20260906171159 | 36 | 172 | 0.0 | 0.0 | 0.00 | 0.00 | 0.00 | 38 | 1016.0 |
| 20260906170656 | 35 | 114 | 3.2 | 3.2 | 0.00 | 0.00 | 0.00 | 38 | 1016.0 |
| 20260906170155 | 35 | 143 | 0.0 | 0.0 | 0.00 | 0.00 | 0.00 | 39 | 1016.0 |
| 20260906165651 | 36 | 91 | 0.0 | 0.0 | 0.00 | 0.00 | 0.00 | 39 | 1016.0 |
| 20260906165147 | 35 | 107 | 3.2 | 3.2 | 0.00 | 0.00 | 0.00 | 40 | 1016.4 |
| 20260906164645 | 35 | 84 | 0.0 | 0.0 | 0.00 | 0.00 | 0.00 | 41 | 1016.4 |
| 20260906164141 | 33 | 90 | 0.0 | 0.0 | 0.00 | 0.00 | 0.00 | 41 | 1016.4 |
| 20260906163637 | 33 | 72 | 0.0 | 0.0 | 0.00 | 0.00 | 0.00 | 41 | 1016.4 |
| 20260906163133 | 34 | 66 | 0.0 | 0.0 | 0.00 | 0.00 | 0.00 | 42 | 1016.4 |
| 20260906162630 | 33 | 95 | 3.2 | 3.2 | 0.00 | 0.00 | 0.00 | 43 | 1016.4 |
| 20260906162129 | 33 | 60 | 0.0 | 0.0 | 0.00 | 0.00 | 0.00 | 45 | 1016.4 |
| 20260906161630 | 32 | 61 | 0.0 | 0.0 | 0.00 | 0.00 | 0.00 | 45 | 1016.4 |
| 20260906161128 | 33 | 336 | 1.6 | 1.6 | 0.00 | 0.00 | 0.00 | 46 | 1016.7 |
| 20260906160627 | 33 | 348 | 0.0 | 0.0 | 0.00 | 0.00 | 0.00 | 45 | 1016.4 |
| 20260906160127 | 33 | 10 | 1.6 | 1.6 | 0.00 | 0.00 | 0.00 | 46 | 1016.4 |
| 20260906155624 | 32 | 1 | 3.2 | 3.2 | 0.00 | 0.00 | 0.00 | 48 | 1016.4 |
| 20260906155120 | 34 | 11 | 0.0 | 0.0 | 0.00 | 0.00 | 0.00 | 49 | 1016.4 |
| 20260906154615 | 33 | 11 | 0.0 | 0.0 | 0.00 | 0.00 | 0.00 | 49 | 1016.4 |
| 20260906154115 | 33 | 28 | 3.2 | 3.2 | 0.00 | 0.00 | 0.00 | 50 | 1016.4 |
| 20260906153614 | 33 | 258 | 3.2 | 3.2 | 0.00 | 0.00 | 0.00 | 52 | 1016.4 |
| 20260906153108 | 32 | 258 | 0.0 | 0.0 | 0.00 | 0.00 | 0.00 | 53 | 1016.4 |
| 20260906152603 | 31 | 258 | 1.6 | 1.6 | 0.00 | 0.00 | 0.00 | 53 | 1016.4 |
| 20260906152057 | 31 | 258 | 3.2 | 3.2 | 0.00 | 0.00 | 0.00 | 53 | 1016.4 |
| 20260906151552 | 31 | 258 | 0.0 | 0.0 | 0.00 | 0.00 | 0.00 | 54 | 1016.4 |
| 20260906151048 | 30 | 258 | 0.0 | 0.0 | 0.00 | 0.00 | 0.00 | 55 | 1016.0 |
| 20260906150543 | 32 | 258 | 3.2 | 3.2 | 0.00 | 0.00 | 0.00 | 56 | 1016.4 |
| 20260906150038 | 31 | 252 | 3.2 | 3.2 | 0.00 | 0.00 | 0.00 | 55 | 1016.4 |
| 20260906145537 | 30 | 195 | 0.0 | 0.0 | 0.00 | 0.00 | 0.00 | 55 | 1016.4 |
| 20260906145032 | 29 | 181 | 3.2 | 3.2 | 0.00 | 0.00 | 0.00 | 56 | 1016.4 |
| 20260906144526 | 31 | 181 | 3.2 | 3.2 | 0.00 | 0.00 | 0.00 | 57 | 1016.4 |
| 20260906144022 | 31 | 181 | 3.2 | 3.2 | 0.00 | 0.00 | 0.00 | 57 | 1016.4 |
| 20260906143517 | 31 | 181 | 3.2 | 3.2 | 0.00 | 0.00 | 0.00 | 57 | 1016.4 |
| 20260906143013 | 31 | 276 | 0.0 | 0.0 | 0.00 | 0.00 | 0.00 | 58 | 1016.0 |
| 20260906142507 | 30 | 276 | 0.0 | 0.0 | 0.00 | 0.00 | 0.00 | 59 | 1016.4 |
| 20260906142003 | 30 | 276 | 1.6 | 1.6 | 0.00 | 0.00 | 0.00 | 61 | 1016.0 |
| 20260906141501 | 29 | 276 | 1.6 | 1.6 | 0.00 | 0.00 | 0.00 | 62 | 1016.4 |
| 20260906140957 | 29 | 159 | 3.2 | 3.2 | 0.00 | 0.00 | 0.00 | 63 | 1016.4 |
| 20260906140450 | 28 | 166 | 3.2 | 3.2 | 0.00 | 0.00 | 0.00 | 63 | 1016.4 |
| 20260906135949 | 28 | 168 | 1.6 | 1.6 | 0.00 | 0.00 | 0.00 | 65 | 1016.0 |
| 20260906135448 | 28 | 168 | 3.2 | 3.2 | 0.00 | 0.00 | 0.00 | 65 | 1016.4 |
| 20260906134943 | 28 | 168 | 3.2 | 3.2 | 0.00 | 0.00 | 0.00 | 66 | 1016.0 |
| 20260906134438 | 27 | 156 | 0.0 | 0.0 | 0.00 | 0.00 | 0.00 | 68 | 1016.0 |
| 20260906133939 | 27 | 156 | 3.2 | 3.2 | 0.00 | 0.00 | 0.00 | 68 | 1016.4 |
| 20260906133435 | 27 | 156 | 0.0 | 0.0 | 0.00 | 0.00 | 0.00 | 69 | 1016.0 |
| 20260906132930 | 27 | 156 | 0.0 | 0.0 | 0.00 | 0.00 | 0.00 | 70 | 1015.7 |
| 20260906132425 | 26 | 156 | 0.0 | 0.0 | 0.00 | 0.00 | 0.00 | 70 | 1015.7 |
| 20260906131921 | 26 | 156 | 3.2 | 3.2 | 0.00 | 0.00 | 0.00 | 71 | 1015.7 |
| 20260906131416 | 26 | 156 | 0.0 | 0.0 | 0.00 | 0.00 | 0.00 | 73 | 1015.7 |
| 20260906130912 | 25 | 156 | 0.0 | 0.0 | 0.00 | 0.00 | 0.00 | 73 | 1015.7 |
| 20260906130411 | 25 | 156 | 3.2 | 3.2 | 0.00 | 0.00 | 0.00 | 74 | 1015.7 |
| 20260906125911 | 25 | 156 | 3.2 | 3.2 | 0.00 | 0.00 | 0.00 | 75 | 1015.7 |
| 20260906125408 | 25 | 156 | 3.2 | 3.2 | 0.00 | 0.00 | 0.00 | 76 | 1015.7 |
| 20260906124902 | 24 | 156 | 3.2 | 3.2 | 0.00 | 0.00 | 0.00 | 77 | 1015.7 |
| 20260906124359 | 24 | 174 | 4.8 | 4.8 | 0.00 | 0.00 | 0.00 | 78 | 1015.4 |
| 20260906123858 | 24 | 143 | 4.8 | 4.8 | 0.00 | 0.00 | 0.00 | 78 | 1015.4 |
| 20260906123353 | 23 | 143 | 3.2 | 3.2 | 0.00 | 0.00 | 0.00 | 79 | 1015.4 |
| 20260906122853 | 23 | 132 | 4.8 | 4.8 | 0.00 | 0.00 | 0.00 | 80 | 1015.4 |
| 20260906122353 | 23 | 116 | 3.2 | 3.2 | 0.00 | 0.00 | 0.00 | 81 | 1015.4 |
| 20260906121850 | 23 | 114 | 3.2 | 3.2 | 0.00 | 0.00 | 0.00 | 82 | 1015.4 |
| 20260906121345 | 23 | 114 | 1.6 | 1.6 | 0.00 | 0.00 | 0.00 | 84 | 1015.0 |
| 20260906120841 | 22 | 114 | 3.2 | 3.2 | 0.00 | 0.00 | 0.00 | 85 | 1015.4 |
| 20260906120337 | 22 | 114 | 3.2 | 3.2 | 0.00 | 0.00 | 0.00 | 85 | 1015.0 |
| 20260906115833 | 23 | 62 | 0.0 | 0.0 | 0.00 | 0.00 | 0.00 | 86 | 1015.0 |
| 20260906115328 | 23 | 62 | 0.0 | 0.0 | 0.00 | 0.00 | 0.00 | 85 | 1015.0 |
| 20260906114827 | 23 | 62 | 0.0 | 0.0 | 0.00 | 0.00 | 0.00 | 84 | 1015.0 |
| 20260906114323 | 23 | 62 | 0.0 | 0.0 | 0.00 | 0.00 | 0.00 | 84 | 1015.0 |
| 20260906113818 | 23 | 62 | 0.0 | 0.0 | 0.00 | 0.00 | 0.00 | 83 | 1015.4 |
| 20260906113317 | 23 | 62 | 0.0 | 0.0 | 0.00 | 0.00 | 0.00 | 83 | 1015.0 |
| 20260906112813 | 23 | 62 | 0.0 | 0.0 | 0.00 | 0.00 | 0.00 | 84 | 1014.7 |
| 20260906112309 | 23 | 62 | 0.0 | 0.0 | 0.00 | 0.00 | 0.00 | 84 | 1015.0 |
| 20260906111808 | 23 | 62 | 0.0 | 0.0 | 0.00 | 0.00 | 0.00 | 84 | 1015.0 |
| 20260906111307 | 23 | 62 | 0.0 | 0.0 | 0.00 | 0.00 | 0.00 | 84 | 1015.0 |
| 20260906110803 | 23 | 62 | 0.0 | 0.0 | 0.00 | 0.00 | 0.00 | 84 | 1015.0 |
| 20260906110259 | 23 | 62 | 0.0 | 0.0 | 0.00 | 0.00 | 0.00 | 83 | 1015.0 |
| 20260906105758 | 23 | 62 | 0.0 | 0.0 | 0.00 | 0.00 | 0.00 | 83 | 1015.0 |
| 20260906105254 | 23 | 62 | 0.0 | 0.0 | 0.00 | 0.00 | 0.00 | 82 | 1014.7 |
| 20260906104749 | 23 | 62 | 0.0 | 0.0 | 0.00 | 0.00 | 0.00 | 82 | 1015.0 |
| 20260906104247 | 23 | 62 | 0.0 | 0.0 | 0.00 | 0.00 | 0.00 | 81 | 1015.0 |
| 20260906103746 | 23 | 62 | 0.0 | 0.0 | 0.00 | 0.00 | 0.00 | 81 | 1015.0 |
| 20260906103240 | 24 | 62 | 0.0 | 0.0 | 0.00 | 0.00 | 0.00 | 81 | 1014.7 |
| 20260906102736 | 24 | 62 | 0.0 | 0.0 | 0.00 | 0.00 | 0.00 | 81 | 1014.7 |
| 20260906102234 | 24 | 62 | 0.0 | 0.0 | 0.00 | 0.00 | 0.00 | 80 | 1014.7 |
| 20260906101730 | 24 | 62 | 0.0 | 0.0 | 0.00 | 0.00 | 0.00 | 80 | 1014.7 |
| 20260906101225 | 24 | 62 | 0.0 | 0.0 | 0.00 | 0.00 | 0.00 | 80 | 1015.0 |
| 20260906100720 | 24 | 62 | 0.0 | 0.0 | 0.00 | 0.00 | 0.00 | 80 | 1014.7 |
| 20260906100215 | 24 | 62 | 0.0 | 0.0 | 0.00 | 0.00 | 0.00 | 79 | 1014.7 |
| 20260906095714 | 25 | 62 | 0.0 | 0.0 | 0.00 | 0.00 | 0.00 | 79 | 1014.7 |
| 20260906095210 | 25 | 62 | 0.0 | 0.0 | 0.00 | 0.00 | 0.00 | 79 | 1014.7 |
| 20260906094708 | 25 | 62 | 0.0 | 0.0 | 0.00 | 0.00 | 0.00 | 79 | 1014.2 |
| 20260906094204 | 25 | 62 | 0.0 | 0.0 | 0.00 | 0.00 | 0.00 | 79 | 1014.7 |
| 20260906093701 | 25 | 62 | 0.0 | 0.0 | 0.00 | 0.00 | 0.00 | 79 | 1014.2 |
| 20260906093156 | 25 | 62 | 0.0 | 0.0 | 0.00 | 0.00 | 0.00 | 79 | 1014.2 |
| 20260906092651 | 25 | 62 | 0.0 | 0.0 | 0.00 | 0.00 | 0.00 | 77 | 1014.2 |
| 20260906092150 | 25 | 62 | 0.0 | 0.0 | 0.00 | 0.00 | 0.00 | 77 | 1014.2 |
| 20260906091647 | 25 | 62 | 0.0 | 0.0 | 0.00 | 0.00 | 0.00 | 76 | 1014.2 |
| 20260906091143 | 25 | 62 | 0.0 | 0.0 | 0.00 | 0.00 | 0.00 | 74 | 1014.2 |
| 20260906090639 | 25 | 62 | 0.0 | 0.0 | 0.00 | 0.00 | 0.00 | 74 | 1014.2 |
| 20260906090138 | 25 | 62 | 0.0 | 0.0 | 0.00 | 0.00 | 0.00 | 74 | 1014.2 |
| 20260906085637 | 25 | 62 | 0.0 | 0.0 | 0.00 | 0.00 | 0.00 | 74 | 1014.2 |
| 20260906085131 | 25 | 62 | 0.0 | 0.0 | 0.00 | 0.00 | 0.00 | 73 | 1014.2 |
| 20260906084626 | 26 | 62 | 0.0 | 0.0 | 0.00 | 0.00 | 0.00 | 73 | 1014.2 |
| 20260906084125 | 26 | 62 | 0.0 | 0.0 | 0.00 | 0.00 | 0.00 | 72 | 1014.2 |
| 20260906083620 | 26 | 62 | 0.0 | 0.0 | 0.00 | 0.00 | 0.00 | 72 | 1014.2 |
| 20260906083115 | 26 | 62 | 1.6 | 1.6 | 0.00 | 0.00 | 0.00 | 71 | 1014.2 |
| 20260906082611 | 26 | 66 | 3.2 | 3.2 | 0.00 | 0.00 | 0.00 | 72 | 1014.2 |
| 20260906082106 | 26 | 105 | 0.0 | 0.0 | 0.00 | 0.00 | 0.00 | 74 | 1013.9 |
| 20260906081602 | 26 | 105 | 0.0 | 0.0 | 0.00 | 0.00 | 0.00 | 73 | 1013.9 |
| 20260906081057 | 26 | 105 | 0.0 | 0.0 | 0.00 | 0.00 | 0.00 | 71 | 1014.2 |
| 20260906080554 | 26 | 105 | 0.0 | 0.0 | 0.00 | 0.00 | 0.00 | 71 | 1013.9 |
| 20260906080049 | 26 | 105 | 0.0 | 0.0 | 0.00 | 0.00 | 0.00 | 73 | 1013.9 |
| 20260906075543 | 26 | 105 | 0.0 | 0.0 | 0.00 | 0.00 | 0.00 | 72 | 1013.9 |
| 20260906075038 | 26 | 105 | 0.0 | 0.0 | 0.00 | 0.00 | 0.00 | 75 | 1013.9 |
| 20260906074533 | 26 | 105 | 0.0 | 0.0 | 0.00 | 0.00 | 0.00 | 75 | 1013.9 |
| 20260906074031 | 26 | 105 | 0.0 | 0.0 | 0.00 | 0.00 | 0.00 | 75 | 1014.2 |
| 20260906073526 | 26 | 105 | 0.0 | 0.0 | 0.00 | 0.00 | 0.00 | 74 | 1014.2 |
| 20260906073023 | 26 | 105 | 3.2 | 3.2 | 0.00 | 0.00 | 0.00 | 72 | 1013.9 |
| 20260906072517 | 27 | 105 | 0.0 | 0.0 | 0.00 | 0.00 | 0.00 | 70 | 1014.2 |
| 20260906072014 | 27 | 105 | 0.0 | 0.0 | 0.00 | 0.00 | 0.00 | 67 | 1013.9 |
| 20260906071509 | 27 | 105 | 0.0 | 0.0 | 0.00 | 0.00 | 0.00 | 66 | 1014.2 |
| 20260906071005 | 27 | 105 | 0.0 | 0.0 | 0.00 | 0.00 | 0.00 | 65 | 1014.2 |
| 20260906070501 | 28 | 105 | 0.0 | 0.0 | 0.00 | 0.00 | 0.00 | 64 | 1013.9 |
| 20260906065956 | 28 | 105 | 0.0 | 0.0 | 0.00 | 0.00 | 0.00 | 64 | 1013.9 |
| 20260906065455 | 28 | 105 | 0.0 | 0.0 | 0.00 | 0.00 | 0.00 | 63 | 1013.9 |
| 20260906064951 | 27 | 105 | 0.0 | 0.0 | 0.00 | 0.00 | 0.00 | 64 | 1013.9 |
| 20260906064447 | 27 | 105 | 0.0 | 0.0 | 0.00 | 0.00 | 0.00 | 65 | 1013.9 |
| 20260906063942 | 27 | 105 | 0.0 | 0.0 | 0.00 | 0.00 | 0.00 | 66 | 1014.2 |
| 20260906063438 | 27 | 105 | 0.0 | 0.0 | 0.00 | 0.00 | 0.00 | 66 | 1014.2 |
| 20260906062938 | 27 | 105 | 1.6 | 1.6 | 0.00 | 0.00 | 0.00 | 68 | 1014.2 |
| 20260906062433 | 28 | 105 | 0.0 | 0.0 | 0.00 | 0.00 | 0.00 | 66 | 1014.2 |
| 20260906061927 | 28 | 105 | 0.0 | 0.0 | 0.00 | 0.00 | 0.00 | 66 | 1014.7 |
| 20260906061424 | 27 | 105 | 0.0 | 0.0 | 0.00 | 0.00 | 0.00 | 66 | 1014.7 |
| 20260906060918 | 27 | 105 | 0.0 | 0.0 | 0.00 | 0.00 | 0.00 | 66 | 1014.7 |
| 20260906060415 | 27 | 105 | 0.0 | 0.0 | 0.00 | 0.00 | 0.00 | 67 | 1014.7 |
| 20260906055911 | 27 | 105 | 0.0 | 0.0 | 0.00 | 0.00 | 0.00 | 68 | 1014.7 |
| 20260906055407 | 27 | 105 | 0.0 | 0.0 | 0.00 | 0.00 | 0.00 | 68 | 1014.7 |
| 20260906054902 | 27 | 105 | 0.0 | 0.0 | 0.00 | 0.00 | 0.00 | 69 | 1014.7 |
| 20260906054357 | 27 | 105 | 3.2 | 3.2 | 0.00 | 0.00 | 0.00 | 69 | 1014.7 |
| 20260906053853 | 27 | 162 | 0.0 | 0.0 | 0.00 | 0.00 | 0.00 | 70 | 1014.7 |
| 20260906053349 | 27 | 172 | 3.2 | 3.2 | 0.00 | 0.00 | 0.00 | 71 | 1014.7 |
| 20260906052844 | 27 | 150 | 3.2 | 3.2 | 0.00 | 0.00 | 0.00 | 68 | 1014.7 |
| 20260906052340 | 27 | 150 | 0.0 | 0.0 | 0.00 | 0.00 | 0.00 | 67 | 1014.7 |
| 20260906051837 | 27 | 150 | 0.0 | 0.0 | 0.00 | 0.00 | 0.00 | 67 | 1014.7 |
| 20260906051336 | 27 | 150 | 0.0 | 0.0 | 0.00 | 0.00 | 0.00 | 69 | 1014.2 |
| 20260906050832 | 28 | 150 | 0.0 | 0.0 | 0.00 | 0.00 | 0.00 | 69 | 1014.2 |
| 20260906050327 | 28 | 153 | 1.6 | 1.6 | 0.00 | 0.00 | 0.00 | 67 | 1014.2 |
| 20260906045826 | 28 | 155 | 0.0 | 0.0 | 0.00 | 0.00 | 0.00 | 66 | 1014.7 |
| 20260906045320 | 28 | 156 | 0.0 | 0.0 | 0.00 | 0.00 | 0.00 | 65 | 1014.2 |
| 20260906044817 | 28 | 156 | 0.0 | 0.0 | 0.00 | 0.00 | 0.00 | 65 | 1014.2 |
| 20260906044317 | 28 | 156 | 0.0 | 0.0 | 0.00 | 0.00 | 0.00 | 65 | 1014.2 |
| 20260906043813 | 28 | 156 | 0.0 | 0.0 | 0.00 | 0.00 | 0.00 | 67 | 1014.2 |
| 20260906043309 | 28 | 156 | 0.0 | 0.0 | 0.00 | 0.00 | 0.00 | 66 | 1014.2 |
| 20260906042803 | 28 | 156 | 0.0 | 0.0 | 0.00 | 0.00 | 0.00 | 67 | 1014.2 |
| 20260906042306 | 28 | 156 | 0.0 | 0.0 | 0.00 | 0.00 | 0.00 | 67 | 1014.2 |
| 20260906041758 | 28 | 156 | 0.0 | 0.0 | 0.00 | 0.00 | 0.00 | 67 | 1014.2 |
| 20260906041253 | 28 | 156 | 0.0 | 0.0 | 0.00 | 0.00 | 0.00 | 67 | 1014.2 |
| 20260906040748 | 28 | 156 | 0.0 | 0.0 | 0.00 | 0.00 | 0.00 | 67 | 1014.2 |
| 20260906040243 | 28 | 156 | 0.0 | 0.0 | 0.00 | 0.00 | 0.00 | 65 | 1014.7 |
| 20260906035738 | 28 | 156 | 0.0 | 0.0 | 0.00 | 0.00 | 0.00 | 66 | 1014.7 |
| 20260906035234 | 29 | 156 | 1.6 | 1.6 | 0.00 | 0.00 | 0.00 | 64 | 1014.7 |
| 20260906034734 | 29 | 156 | 0.0 | 0.0 | 0.00 | 0.00 | 0.00 | 60 | 1014.2 |
| 20260906034229 | 29 | 156 | 0.0 | 0.0 | 0.00 | 0.00 | 0.00 | 60 | 1013.9 |
| 20260906033725 | 29 | 156 | 0.0 | 0.0 | 0.00 | 0.00 | 0.00 | 59 | 1013.9 |
| 20260906033224 | 29 | 156 | 0.0 | 0.0 | 0.00 | 0.00 | 0.00 | 58 | 1014.2 |
| 20260906032721 | 28 | 156 | 0.0 | 0.0 | 0.00 | 0.00 | 0.00 | 60 | 1014.2 |
| 20260906032221 | 28 | 156 | 0.0 | 0.0 | 0.00 | 0.00 | 0.00 | 63 | 1014.2 |
| 20260906031716 | 29 | 156 | 0.0 | 0.0 | 0.00 | 0.00 | 0.00 | 63 | 1013.9 |
| 20260906031212 | 29 | 156 | 0.0 | 0.0 | 0.00 | 0.00 | 0.00 | 62 | 1014.2 |
| 20260906030711 | 29 | 156 | 0.0 | 0.0 | 0.00 | 0.00 | 0.00 | 61 | 1013.9 |
| 20260906030206 | 29 | 156 | 0.0 | 0.0 | 0.00 | 0.00 | 0.00 | 61 | 1013.9 |
| 20260906025706 | 30 | 156 | 0.0 | 0.0 | 0.00 | 0.00 | 0.00 | 61 | 1013.9 |
| 20260906025200 | 30 | 156 | 0.0 | 0.0 | 0.00 | 0.00 | 0.00 | 60 | 1013.9 |
| 20260906024654 | 30 | 156 | 0.0 | 0.0 | 0.00 | 0.00 | 0.00 | 58 | 1013.6 |
| 20260906024153 | 30 | 156 | 0.0 | 0.0 | 0.00 | 0.00 | 0.00 | 55 | 1013.6 |
| 20260906023650 | 30 | 156 | 0.0 | 0.0 | 0.00 | 0.00 | 0.00 | 56 | 1013.9 |
| 20260906023149 | 30 | 156 | 0.0 | 0.0 | 0.00 | 0.00 | 0.00 | 56 | 1013.6 |
| 20260906022644 | 30 | 156 | 0.0 | 0.0 | 0.00 | 0.00 | 0.00 | 57 | 1013.9 |
| 20260906022140 | 30 | 156 | 0.0 | 0.0 | 0.00 | 0.00 | 0.00 | 57 | 1013.6 |
| 20260906021636 | 31 | 155 | 0.0 | 0.0 | 0.00 | 0.00 | 0.00 | 57 | 1013.6 |
| 20260906021134 | 31 | 156 | 0.0 | 0.0 | 0.00 | 0.00 | 0.00 | 56 | 1013.6 |
| 20260906020629 | 31 | 155 | 0.0 | 0.0 | 0.00 | 0.00 | 0.00 | 54 | 1012.9 |
| 20260906020124 | 31 | 155 | 0.0 | 0.0 | 0.00 | 0.00 | 0.00 | 53 | 1013.6 |
| 20260906015618 | 32 | 155 | 0.0 | 0.0 | 0.00 | 0.00 | 0.00 | 49 | 1012.9 |
| 20260906015117 | 32 | 155 | 0.0 | 0.0 | 0.00 | 0.00 | 0.00 | 49 | 1013.2 |
| 20260906014612 | 32 | 155 | 0.0 | 0.0 | 0.00 | 0.00 | 0.00 | 49 | 1013.2 |
| 20260906014108 | 32 | 155 | 0.0 | 0.0 | 0.00 | 0.00 | 0.00 | 48 | 1013.2 |
| 20260906013603 | 32 | 155 | 0.0 | 0.0 | 0.00 | 0.00 | 0.00 | 48 | 1013.2 |
| 20260906013058 | 32 | 155 | 0.0 | 0.0 | 0.00 | 0.00 | 0.00 | 48 | 1012.9 |
| 20260906012553 | 32 | 155 | 0.0 | 0.0 | 0.00 | 0.00 | 0.00 | 47 | 1012.9 |
| 20260906012053 | 32 | 155 | 0.0 | 0.0 | 0.00 | 0.00 | 0.00 | 47 | 1012.9 |
| 20260906011549 | 33 | 155 | 0.0 | 0.0 | 0.00 | 0.00 | 0.00 | 47 | 1012.9 |
| 20260906011049 | 33 | 155 | 0.0 | 0.0 | 0.00 | 0.00 | 0.00 | 47 | 1012.9 |
| 20260906010544 | 33 | 155 | 0.0 | 0.0 | 0.00 | 0.00 | 0.00 | 47 | 1012.9 |
| 20260906010041 | 33 | 155 | 0.0 | 0.0 | 0.00 | 0.00 | 0.00 | 45 | 1012.9 |
| 20260906005540 | 33 | 155 | 0.0 | 0.0 | 0.00 | 0.00 | 0.00 | 45 | 1012.9 |
| 20260906005039 | 34 | 155 | 0.0 | 0.0 | 0.00 | 0.00 | 0.00 | 44 | 1012.9 |
| 20260906004538 | 34 | 155 | 0.0 | 0.0 | 0.00 | 0.00 | 0.00 | 43 | 1012.5 |
| 20260906004033 | 35 | 155 | 0.0 | 0.0 | 0.00 | 0.00 | 0.00 | 43 | 1012.5 |
| 20260906003528 | 35 | 155 | 0.0 | 0.0 | 0.00 | 0.00 | 0.00 | 42 | 1012.9 |
| 20260906003024 | 35 | 155 | 0.0 | 0.0 | 0.00 | 0.00 | 0.00 | 41 | 1012.5 |
| 20260906002519 | 36 | 155 | 0.0 | 0.0 | 0.00 | 0.00 | 0.00 | 40 | 1012.5 |
| 20260906002014 | 36 | 155 | 0.0 | 0.0 | 0.00 | 0.00 | 0.00 | 39 | 1012.5 |
| 20260906001510 | 37 | 155 | 0.0 | 0.0 | 0.00 | 0.00 | 0.00 | 39 | 1012.9 |
| 20260906001004 | 37 | 155 | 0.0 | 0.0 | 0.00 | 0.00 | 0.00 | 38 | 1012.9 |
| 20260906000500 | 37 | 155 | 0.0 | 0.0 | 0.00 | 0.00 | 0.00 | 37 | 1012.5 |
| 20260905235959 | 37 | 155 | 0.0 | 0.0 | 0.00 | 0.00 | 0.00 | 37 | 1012.9 |
| 20260905235454 | 37 | 155 | 0.0 | 0.0 | 0.00 | 0.00 | 0.00 | 36 | 1012.9 |
| 20260905234949 | 37 | 155 | 0.0 | 0.0 | 0.00 | 0.00 | 0.00 | 36 | 1012.9 |
| 20260905234444 | 38 | 155 | 0.0 | 0.0 | 0.00 | 0.00 | 0.00 | 35 | 1012.9 |
| 20260905233938 | 37 | 155 | 0.0 | 0.0 | 0.00 | 0.00 | 0.00 | 36 | 1012.9 |
| 20260905233434 | 38 | 155 | 1.6 | 1.6 | 0.00 | 0.00 | 0.00 | 36 | 1012.9 |
| 20260905232932 | 37 | 160 | 0.0 | 0.0 | 0.00 | 0.00 | 0.00 | 35 | 1012.9 |
| 20260905232429 | 37 | 160 | 3.2 | 3.2 | 0.00 | 0.00 | 0.00 | 35 | 1012.5 |
| 20260905231924 | 36 | 175 | 0.0 | 0.0 | 0.00 | 0.00 | 0.00 | 35 | 1012.5 |
| 20260905231420 | 35 | 84 | 0.0 | 0.0 | 0.00 | 0.00 | 0.00 | 34 | 1012.9 |
| 20260905230917 | 37 | 60 | 0.0 | 0.0 | 0.00 | 0.00 | 0.00 | 34 | 1012.5 |
| 20260905230415 | 36 | 60 | 3.2 | 3.2 | 0.00 | 0.00 | 0.00 | 35 | 1012.9 |
| 20260905225913 | 36 | 30 | 0.0 | 0.0 | 0.00 | 0.00 | 0.00 | 34 | 1012.9 |
| 20260905225409 | 36 | 30 | 0.0 | 0.0 | 0.00 | 0.00 | 0.00 | 34 | 1012.9 |
| 20260905224903 | 36 | 30 | 1.6 | 1.6 | 0.00 | 0.00 | 0.00 | 33 | 1012.5 |
| 20260905224359 | 36 | 241 | 0.0 | 0.0 | 0.00 | 0.00 | 0.00 | 33 | 1012.5 |
| 20260905223854 | 36 | 241 | 0.0 | 0.0 | 0.00 | 0.00 | 0.00 | 33 | 1012.5 |
| 20260905223351 | 36 | 241 | 0.0 | 0.0 | 0.00 | 0.00 | 0.00 | 34 | 1012.9 |
| 20260905222846 | 36 | 241 | 1.6 | 1.6 | 0.00 | 0.00 | 0.00 | 33 | 1012.9 |
| 20260905222345 | 37 | 240 | 0.0 | 0.0 | 0.00 | 0.00 | 0.00 | 33 | 1012.9 |
| 20260905221841 | 37 | 132 | 0.0 | 0.0 | 0.00 | 0.00 | 0.00 | 32 | 1012.9 |
| 20260905221337 | 37 | 16 | 0.0 | 0.0 | 0.00 | 0.00 | 0.00 | 31 | 1012.9 |
| 20260905220833 | 36 | 41 | 0.0 | 0.0 | 0.00 | 0.00 | 0.00 | 32 | 1013.2 |
| 20260905220329 | 35 | 42 | 0.0 | 0.0 | 0.00 | 0.00 | 0.00 | 35 | 1012.9 |
| 20260905215828 | 35 | 60 | 0.0 | 0.0 | 0.00 | 0.00 | 0.00 | 36 | 1013.2 |
| 20260905215324 | 35 | 60 | 0.0 | 0.0 | 0.00 | 0.00 | 0.00 | 35 | 1013.2 |
| 20260905214821 | 37 | 60 | 0.0 | 0.0 | 0.00 | 0.00 | 0.00 | 34 | 1013.2 |
| 20260905214315 | 36 | 90 | 3.2 | 3.2 | 0.00 | 0.00 | 0.00 | 34 | 1012.9 |
| 20260905213810 | 36 | 108 | 3.2 | 3.2 | 0.00 | 0.00 | 0.00 | 33 | 1013.2 |
| 20260905213306 | 37 | 84 | 3.2 | 3.2 | 0.00 | 0.00 | 0.00 | 33 | 1013.2 |
| 20260905212801 | 37 | 94 | 3.2 | 3.2 | 0.00 | 0.00 | 0.00 | 33 | 1012.9 |
| 20260905212301 | 37 | 112 | 3.2 | 3.2 | 0.00 | 0.00 | 0.00 | 32 | 1013.2 |
| 20260905211755 | 37 | 40 | 3.2 | 3.2 | 0.00 | 0.00 | 0.00 | 30 | 1013.6 |
| 20260905211250 | 37 | 66 | 3.2 | 3.2 | 0.00 | 0.00 | 0.00 | 32 | 1013.2 |
| 20260905210747 | 38 | 78 | 6.4 | 6.4 | 0.00 | 0.00 | 0.00 | 31 | 1013.6 |
| 20260905210247 | 37 | 270 | 0.0 | 0.0 | 0.00 | 0.00 | 0.00 | 32 | 1013.6 |
| 20260905205745 | 37 | 276 | 3.2 | 3.2 | 0.00 | 0.00 | 0.00 | 33 | 1013.9 |
| 20260905205240 | 38 | 270 | 0.0 | 0.0 | 0.00 | 0.00 | 0.00 | 33 | 1013.9 |
| 20260905204740 | 37 | 168 | 1.6 | 1.6 | 0.00 | 0.00 | 0.00 | 33 | 1013.9 |
| 20260905204236 | 39 | 270 | 0.0 | 0.0 | 0.00 | 0.00 | 0.00 | 33 | 1013.9 |
| 20260905203735 | 39 | 138 | 0.0 | 0.0 | 0.00 | 0.00 | 0.00 | 33 | 1014.2 |
| 20260905203231 | 38 | 282 | 1.6 | 1.6 | 0.00 | 0.00 | 0.00 | 32 | 1014.2 |
| 20260905202726 | 37 | 288 | 3.2 | 3.2 | 0.00 | 0.00 | 0.00 | 33 | 1014.2 |
| 20260905202221 | 38 | 324 | 3.2 | 3.2 | 0.00 | 0.00 | 0.00 | 32 | 1014.2 |
| 20260905201716 | 38 | 36 | 0.0 | 0.0 | 0.00 | 0.00 | 0.00 | 33 | 1014.2 |
| 20260905201211 | 37 | 30 | 4.8 | 6.4 | 0.00 | 0.00 | 0.00 | 34 | 1014.7 |
| 20260905200706 | 36 | 318 | 3.2 | 3.2 | 0.00 | 0.00 | 0.00 | 36 | 1014.2 |
| 20260905200202 | 36 | 306 | 0.0 | 0.0 | 0.00 | 0.00 | 0.00 | 36 | 1014.7 |
| 20260905195700 | 36 | 30 | 0.0 | 0.0 | 0.00 | 0.00 | 0.00 | 34 | 1014.7 |
| 20260905195155 | 35 | 186 | 1.6 | 1.6 | 0.00 | 0.00 | 0.00 | 36 | 1014.7 |
| 20260905194650 | 34 | 10 | 3.2 | 3.2 | 0.00 | 0.00 | 0.00 | 38 | 1014.7 |
| 20260905194149 | 34 | 41 | 0.0 | 0.0 | 0.00 | 0.00 | 0.00 | 39 | 1014.7 |
| 20260905193644 | 34 | 90 | 3.2 | 3.2 | 0.00 | 0.00 | 0.00 | 38 | 1014.7 |
| 20260905193139 | 34 | 184 | 0.0 | 0.0 | 0.00 | 0.00 | 0.00 | 39 | 1015.0 |
| 20260905192634 | 35 | 179 | 0.0 | 0.0 | 0.00 | 0.00 | 0.00 | 37 | 1015.0 |
| 20260905192131 | 35 | 179 | 0.0 | 0.0 | 0.00 | 0.00 | 0.00 | 37 | 1015.0 |
| 20260905191630 | 35 | 240 | 0.0 | 0.0 | 0.00 | 0.00 | 0.00 | 38 | 1015.0 |
| 20260905191128 | 35 | 84 | 3.2 | 3.2 | 0.00 | 0.00 | 0.00 | 37 | 1015.4 |
| 20260905190627 | 35 | 90 | 6.4 | 6.4 | 0.00 | 0.00 | 0.00 | 37 | 1015.0 |
| 20260905190126 | 35 | 18 | 3.2 | 3.2 | 0.00 | 0.00 | 0.00 | 38 | 1015.4 |
| 20260905185625 | 35 | 90 | 4.8 | 6.4 | 0.00 | 0.00 | 0.00 | 40 | 1015.4 |
| 20260905185120 | 36 | 102 | 1.6 | 1.6 | 0.00 | 0.00 | 0.00 | 39 | 1015.4 |
| 20260905184615 | 36 | 162 | 3.2 | 3.2 | 0.00 | 0.00 | 0.00 | 37 | 1015.4 |
| 20260905184114 | 35 | 24 | 3.2 | 3.2 | 0.00 | 0.00 | 0.00 | 37 | 1015.7 |
| 20260905183612 | 35 | 216 | 3.2 | 3.2 | 0.00 | 0.00 | 0.00 | 37 | 1015.7 |
| 20260905183108 | 35 | 192 | 0.0 | 0.0 | 0.00 | 0.00 | 0.00 | 39 | 1015.7 |